• Join FlightAware (Why Join?)
  • Login
  • US Flag 
07:15PM EDT


 

Airport Tracker/Info


-or-


 

Live Flight TrackerFlight Track Log ✈ UAL1177 ✈ 18-May-2013 ✈ KEWR - KDEN

Flight Track Log - Related Links

Times and Time Zones

All times are in EDT time to prevent confusion due to time zone crossing. See the UAL1177 flight status page for this flight to view local times or setup timezone preferences in your user account.

Time Position Orientation Groundspeed Altitude Reporting Facility
EDT Latitude Longitude Course Direction KTS MPH feet Rate Location/Type
02:09PM 40.6685 -74.1840 198° South 45 52 400  Level FlightAware ADS-B
02:10PM 40.6434 -74.1896 190° South 182 209 1,200 1,620 Climbing FlightAware ADS-B
02:10PM 40.6403 -74.1914 204° Southwest 209 241 1,300 2,100 Climbing FlightAware ADS-B
02:10PM 40.6309 -74.1981 208° Southwest 216 249 1,700 2,580 Climbing FlightAware ADS-B
02:10PM 40.6267 -74.2030 222° Southwest 219 252 2,000 3,240 Climbing FlightAware ADS-B
02:10PM 40.6238 -74.2084 235° Southwest 219 252 2,300 3,300 Climbing FlightAware ADS-B
02:10PM 40.6222 -74.2132 246° West 219 252 2,500 2,820 Climbing FlightAware ADS-B
02:10PM 40.6214 -74.2332 267° West 225 259 3,200 2,580 Climbing FlightAware ADS-B
02:11PM 40.6244 -74.2443 290° West 235 270 3,500 2,280 Climbing FlightAware ADS-B
02:11PM 40.6271 -74.2509 298° West 239 275 3,700 1,800 Climbing FlightAware ADS-B
02:11PM 40.6311 -74.2604 299° West 247 284 3,900 1,980 Climbing FlightAware ADS-B
02:11PM 40.6356 -74.2708 300° West 256 295 4,200 1,800 Climbing FlightAware ADS-B
02:11PM 40.6447 -74.2926 299° West 272 313 4,600 1,860 Climbing FlightAware ADS-B
02:11PM 40.6485 -74.3017 299° West 273 314 4,900 3,180 Climbing FlightAware ADS-B
02:11PM 40.6538 -74.3146 298° West 273 314 5,400 3,840 Climbing FlightAware ADS-B
02:12PM 40.6633 -74.3376 299° West 265 305 6,500 3,720 Climbing FlightAware ADS-B
02:12PM 40.6724 -74.3596 299° West 261 300 7,400 3,060 Climbing FlightAware ADS-B
02:12PM 40.6815 -74.3816 299° West 262 302 8,100 2,700 Climbing FlightAware ADS-B
02:12PM 40.6906 -74.4040 298° West 267 307 8,800 2,580 Climbing FlightAware ADS-B
02:13PM 40.7000 -74.4274 298° West 271 312 9,500 1,860 Climbing FlightAware ADS-B
02:13PM 40.7198 -74.4739 299° West 293 337 10,300 1,320 Climbing FlightAware ADS-B
02:14PM 40.7419 -74.5250 300° West 324 373 10,900 1,140 Climbing FlightAware ADS-B
02:14PM 40.7461 -74.5356 298° West 333 383 11,000 960 Climbing FlightAware ADS-B
02:14PM 40.7490 -74.5463 290° West 335 386 11,100 2,220 Climbing FlightAware ADS-B
02:14PM 40.7526 -74.5666 283° West 335 386 11,600 2,520 Climbing FlightAware ADS-B
02:15PM 40.7590 -74.6306 278° West 341 392 12,900 2,400 Climbing FlightAware ADS-B
02:15PM 40.7646 -74.6941 277° West 348 400 14,100 2,280 Climbing FlightAware ADS-B
02:16PM 40.7707 -74.7642 277° West 356 410 15,300 2,160 Climbing FlightAware ADS-B
02:16PM 40.7765 -74.8294 277° West 359 413 16,400 2,100 Climbing FlightAware ADS-B
02:17PM 40.7826 -74.9035 276° West 362 417 17,600 2,040 Climbing FlightAware ADS-B
02:17PM 40.7886 -74.9707 277° West 365 420 18,600 1,980 Climbing FlightAware ADS-B
02:18PM 40.7954 -75.0421 277° West 368 423 19,700 1,920 Climbing FlightAware ADS-B
02:18PM 40.7995 -75.0864 277° West 368 423 20,300 1,920 Climbing FlightAware ADS-B
02:18PM 40.8003 -75.1046 273° West 370 426 20,600 1,980 Climbing FlightAware ADS-B
02:18PM 40.7999 -75.1351 269° West 372 428 21,000 1,800 Climbing FlightAware ADS-B
02:19PM 40.7980 -75.1579 264° West 375 432 21,300 1,560 Climbing FlightAware ADS-B
02:19PM 40.7882 -75.2263 259° West 380 437 22,100 1,560 Climbing FlightAware ADS-B
02:20PM 40.7781 -75.2952 259° West 383 441 22,900 1,560 Climbing FlightAware ADS-B
02:20PM 40.7707 -75.3452 259° West 386 444 23,500 1,620 Climbing FlightAware ADS-B
02:20PM 40.7657 -75.3706 255° West 389 448 23,800 1,500 Climbing FlightAware ADS-B
02:20PM 40.7600 -75.3929 251° West 392 451 24,000 1,200 Climbing FlightAware ADS-B
02:21PM 40.7496 -75.4246 247° West 398 458 24,300 1,260 Climbing FlightAware ADS-B
02:21PM 40.7238 -75.4940 244° Southwest 404 465 25,000 1,320 Climbing FlightAware ADS-B
02:22PM 40.6978 -75.5635 244° Southwest 409 471 25,700 1,200 Climbing FlightAware ADS-B
02:22PM 40.6723 -75.6318 244° Southwest 412 474 26,300 1,140 Climbing FlightAware ADS-B
02:23PM 40.6463 -75.7009 244° Southwest 417 480 26,900 1,140 Climbing FlightAware ADS-B
02:23PM 40.6195 -75.7720 244° Southwest 422 486 27,500 1,080 Climbing FlightAware ADS-B
02:24PM 40.5930 -75.8421 244° Southwest 426 490 28,000 1,140 Climbing FlightAware ADS-B
02:24PM 40.5645 -75.9170 243° Southwest 427 491 28,700 1,260 Climbing FlightAware ADS-B
02:25PM 40.5372 -75.9888 243° Southwest 424 488 29,400 1,320 Climbing FlightAware ADS-B
02:25PM 40.5095 -76.0614 243° Southwest 423 487 30,100 1,020 Climbing FlightAware ADS-B
02:26PM 40.4830 -76.1309 243° Southwest 426 490 30,500 840 Climbing FlightAware ADS-B
02:26PM 40.4547 -76.2049 243° Southwest 428 493 31,000 960 Climbing FlightAware ADS-B
02:27PM 40.4279 -76.2746 243° Southwest 429 494 31,500 900 Climbing FlightAware ADS-B
02:27PM 40.4006 -76.3451 243° Southwest 432 497 31,900 840 Climbing FlightAware ADS-B
02:28PM 40.3700 -76.4242 243° Southwest 432 497 32,400 780 Climbing FlightAware ADS-B
02:28PM 40.3386 -76.5050 243° Southwest 436 502 32,800 780 Climbing FlightAware ADS-B
02:29PM 40.3033 -76.5981 244° Southwest 435 501 33,400 900 Climbing FlightAware ADS-B
02:30PM 40.2890 -76.6572 252° West 425 489 33,800 840 Climbing FlightAware ADS-B
02:30PM 40.2847 -76.6844 258° West 422 486 33,900 180 Climbing FlightAware ADS-B
02:30PM 40.2781 -76.7881 265° West 418 481 34,000 60 Climbing FlightAware ADS-B
02:31PM 40.2740 -76.8745 266° West 419 482 34,000  Level FlightAware ADS-B
02:31PM 40.2704 -76.9503 266° West 418 481 34,000 -660 Level FlightAware ADS-B
02:32PM 40.2639 -77.0849 266° West 414 476 33,100 -1,020 Descending FlightAware ADS-B
02:33PM 40.2601 -77.1606 266° West 417 480 32,600 -1,020 Descending FlightAware ADS-B
02:33PM 40.2561 -77.2386 266° West 418 481 32,100 -300 Descending FlightAware ADS-B
02:35PM 40.2433 -77.4816 266° West 418 481 32,000 -60 Descending FlightAware ADS-B
02:36PM 40.2342 -77.6498 266° West 418 481 32,000  Level FlightAware ADS-B
02:37PM 40.2290 -77.7452 266° West 418 481 32,000  Level FlightAware ADS-B
02:37PM 40.2250 -77.8190 266° West 418 481 32,000  Level FlightAware
02:37PM 40.2228 -77.8542 265° West 418 481 32,000  Level FlightAware ADS-B
02:38PM 40.2180 -77.9340 266° West 419 482 32,000  Level FlightAware
02:38PM 40.2169 -77.9570 266° West 419 482 32,000  Level FlightAware ADS-B
02:39PM 40.2110 -78.0510 265° West 421 484 32,000  Level FlightAware
02:39PM 40.2060 -78.1510 266° West 420 483 32,000  Level FlightAware
02:40PM 40.1990 -78.2610 265° West 421 484 32,000  Level FlightAware
02:42PM 40.2000 -78.5690 270° West 423 487 32,000  Level FlightAware
02:43PM 40.2020 -78.6730 271° West 425 489 32,000  Level FlightAware
02:44PM 40.2030 -78.7840 271° West 426 490 32,000  Level FlightAware
02:44PM 40.2040 -78.8950 271° West 428 493 32,000  Level FlightAware
02:45PM 40.2050 -79.0190 271° West 430 495 32,000  Level FlightAware
02:46PM 40.2060 -79.1240 271° West 430 495 32,000  Level FlightAware
02:46PM 40.2070 -79.2290 271° West 430 495 32,000  Level FlightAware
02:47PM 40.2080 -79.3430 271° West 429 494 32,000  Level FlightAware
02:48PM 40.2090 -79.4440 271° West 428 493 32,000  Level FlightAware
02:49PM 40.2090 -79.5490 270° West 428 493 32,000  Level FlightAware
02:49PM 40.2100 -79.6670 271° West 428 493 32,000  Level FlightAware
02:50PM 40.2100 -79.7720 270° West 429 494 32,000  Level FlightAware
02:51PM 40.2110 -79.8840 271° West 430 495 32,000  Level FlightAware
02:51PM 40.2110 -79.9830 270° West 431 496 32,000  Level FlightAware
02:52PM 40.2110 -80.0880 270° West 432 497 32,000  Level FlightAware
02:53PM 40.2110 -80.2050 270° West 434 499 32,000  Level FlightAware
02:54PM 40.2110 -80.3410 270° West 435 501 32,000  Level FlightAware
02:54PM 40.2110 -80.4600 270° West 436 502 32,000  Level FlightAware
02:55PM 40.2100 -80.5810 269° West 438 504 32,000  Level FlightAware
02:56PM 40.2100 -80.6840 270° West 439 505 32,000  Level FlightAware
02:57PM 40.2090 -80.8040 269° West 440 506 32,000  Level FlightAware
02:57PM 40.2080 -80.9110 269° West 440 506 32,000  Level FlightAware
02:58PM 40.2080 -81.0130 270° West 440 506 32,000  Level FlightAware
02:59PM 40.2070 -81.1380 269° West 442 509 32,000  Level FlightAware
02:59PM 40.2060 -81.2460 269° West 443 510 32,000  Level FlightAware
03:00PM 40.2050 -81.3650 269° West 444 511 32,000  Level FlightAware
03:01PM 40.2030 -81.4720 269° West 444 511 32,000  Level FlightAware
03:01PM 40.2020 -81.5780 269° West 444 511 32,000  Level FlightAware
03:02PM 40.2000 -81.7010 269° West 442 509 32,000  Level FlightAware
03:03PM 40.1990 -81.8030 269° West 441 507 32,000  Level FlightAware
03:03PM 40.1970 -81.9090 269° West 440 506 32,000  Level FlightAware
03:04PM 40.1950 -82.0300 269° West 440 506 32,000  Level FlightAware
03:05PM 40.1940 -82.1370 269° West 440 506 32,000  Level FlightAware
03:06PM 40.1910 -82.2540 268° West 440 506 32,000  Level FlightAware
03:06PM 40.1890 -82.3610 269° West 440 506 32,000  Level FlightAware
03:07PM 40.1870 -82.4790 269° West 442 509 32,000  Level FlightAware
03:08PM 40.1850 -82.5890 269° West 443 510 32,000  Level FlightAware
03:08PM 40.1830 -82.6910 269° West 444 511 32,000  Level FlightAware
03:09PM 40.1800 -82.8190 268° West 446 513 32,000  Level FlightAware
03:10PM 40.1770 -82.9230 268° West 446 513 32,000  Level FlightAware
03:11PM 40.1740 -83.0430 268° West 446 513 32,000  Level FlightAware
03:11PM 40.1720 -83.1520 269° West 446 513 32,000  Level FlightAware
03:12PM 40.1690 -83.2600 268° West 446 513 32,000  Level FlightAware
03:13PM 40.1650 -83.3820 268° West 445 512 32,000  Level FlightAware
03:13PM 40.1620 -83.4890 268° West 445 512 32,000  Level FlightAware
03:14PM 40.1590 -83.6080 268° West 445 512 32,000  Level FlightAware
03:15PM 40.1560 -83.7140 268° West 445 512 32,000  Level FlightAware
03:15PM 40.1520 -83.8220 267° West 444 511 32,000  Level FlightAware
03:16PM 40.1480 -83.9410 268° West 444 511 32,000  Level FlightAware
03:17PM 40.1450 -84.0480 268° West 444 511 32,000  Level FlightAware
03:17PM 40.1410 -84.1580 267° West 445 512 32,000  Level FlightAware
03:18PM 40.1370 -84.2750 267° West 445 512 32,000  Level FlightAware
03:19PM 40.1330 -84.3850 267° West 444 511 32,000  Level FlightAware
03:20PM 40.1280 -84.5060 267° West 444 511 32,000  Level FlightAware
03:20PM 40.1240 -84.6100 267° West 444 511 32,000  Level FlightAware
03:21PM 40.1200 -84.7220 267° West 444 511 32,000  Level FlightAware
03:22PM 40.1160 -84.8350 267° West 445 512 32,000  Level FlightAware
03:22PM 40.1110 -84.9460 267° West 445 512 32,000  Level FlightAware
03:23PM 40.1060 -85.0700 267° West 446 513 32,000  Level FlightAware
03:24PM 40.1070 -85.1710 271° West 447 514 32,000  Level FlightAware
03:24PM 40.1180 -85.2850 277° West 447 514 32,000  Level FlightAware
03:25PM 40.1290 -85.4000 277° West 448 516 32,000  Level FlightAware
03:26PM 40.1240 -85.5100 267° West 448 516 32,000  Level FlightAware
03:27PM 40.1180 -85.6330 266° West 447 514 32,000  Level FlightAware
03:27PM 40.1120 -85.7410 266° West 449 517 32,000  Level FlightAware
03:28PM 40.1070 -85.8510 267° West 449 517 32,000  Level FlightAware
03:29PM 40.1010 -85.9670 266° West 444 511 32,000  Level FlightAware
03:29PM 40.0950 -86.0740 266° West 442 509 32,000  Level FlightAware
03:30PM 40.0880 -86.1970 266° West 442 509 32,000  Level FlightAware
03:31PM 40.0820 -86.3020 266° West 441 507 32,000  Level FlightAware
03:31PM 40.0760 -86.4090 266° West 441 507 32,000  Level FlightAware
03:32PM 40.0690 -86.5260 266° West 439 505 32,000  Level FlightAware
03:33PM 40.0630 -86.6290 266° West 438 504 32,000  Level FlightAware
03:34PM 40.0560 -86.7470 266° West 438 504 32,000  Level FlightAware
03:34PM 40.0490 -86.8570 265° West 440 506 32,000  Level FlightAware
03:35PM 40.0420 -86.9610 265° West 441 507 32,000  Level FlightAware
03:36PM 40.0350 -87.0790 266° West 442 509 32,000  Level FlightAware
03:36PM 40.0280 -87.1850 265° West 442 509 32,000  Level FlightAware
03:37PM 40.0200 -87.3060 265° West 444 511 32,000  Level FlightAware
03:38PM 40.0130 -87.4140 265° West 445 512 32,000  Level FlightAware
03:38PM 40.0060 -87.5210 265° West 447 514 32,000  Level FlightAware
03:39PM 39.9980 -87.6380 265° West 448 516 32,000  Level FlightAware
03:40PM 39.9900 -87.7480 265° West 448 516 32,000  Level FlightAware
03:41PM 39.9810 -87.8690 264° West 449 517 32,000  Level FlightAware
03:41PM 39.9740 -87.9770 265° West 451 519 32,000  Level FlightAware
03:42PM 39.9660 -88.0850 265° West 451 519 32,000  Level FlightAware
03:43PM 39.9570 -88.2100 265° West 453 521 32,000  Level FlightAware
03:43PM 39.9490 -88.3130 264° West 452 520 32,000  Level FlightAware
03:44PM 39.9400 -88.4380 265° West 451 519 32,000  Level FlightAware
03:45PM 39.9320 -88.5420 264° West 451 519 32,000  Level FlightAware
03:46PM 39.9220 -88.6670 264° West 452 520 32,000  Level FlightAware
03:46PM 39.9140 -88.7720 264° West 451 519 32,000  Level FlightAware
03:47PM 39.9050 -88.8760 264° West 450 518 32,000  Level FlightAware
03:48PM 39.8950 -89.0050 264° West 449 517 32,000  Level FlightAware
03:48PM 39.8860 -89.1110 264° West 447 514 32,000  Level FlightAware
03:49PM 39.8770 -89.2290 264° West 445 512 32,000  Level FlightAware
03:50PM 39.8680 -89.3350 264° West 442 509 32,000  Level FlightAware
03:50PM 39.8590 -89.4380 264° West 440 506 32,000  Level FlightAware
03:51PM 39.8490 -89.5550 264° West 436 502 32,000  Level FlightAware
03:52PM 39.8400 -89.6580 264° West 434 499 32,000  Level FlightAware
03:53PM 39.8300 -89.7760 264° West 433 498 32,000  Level FlightAware
03:53PM 39.8210 -89.8810 264° West 431 496 32,000  Level FlightAware
03:54PM 39.8120 -89.9800 263° West 431 496 32,000  Level FlightAware
03:55PM 39.8010 -90.1020 263° West 431 496 32,000  Level FlightAware
03:55PM 39.7910 -90.2060 263° West 433 498 32,000  Level FlightAware
03:56PM 39.7810 -90.3200 264° West 434 499 32,000  Level FlightAware
03:57PM 39.7710 -90.4250 263° West 434 499 32,000  Level FlightAware
03:58PM 39.7580 -90.5600 263° West 434 499 32,000  Level FlightAware
03:58PM 39.7490 -90.6640 264° West 434 499 32,000  Level FlightAware
03:59PM 39.7380 -90.7720 262° West 434 499 32,000  Level FlightAware
04:00PM 39.7270 -90.8720 262° West 434 499 32,000  Level FlightAware
04:00PM 39.7160 -91.0010 264° West 433 498 32,000  Level FlightAware
04:01PM 39.7050 -91.1060 262° West 432 497 32,000  Level FlightAware
04:02PM 39.6940 -91.2210 263° West 430 495 32,000  Level FlightAware
04:03PM 39.6840 -91.3240 263° West 429 494 32,000  Level FlightAware
04:03PM 39.6730 -91.4230 262° West 429 494 32,000  Level FlightAware
04:04PM 39.6620 -91.5370 263° West 429 494 32,000  Level FlightAware
04:05PM 39.6510 -91.6380 262° West 429 494 32,000  Level FlightAware
04:05PM 39.6410 -91.7340 262° West 429 494 32,000  Level FlightAware
04:06PM 39.6300 -91.8420 263° West 430 495 32,000  Level FlightAware
04:07PM 39.6190 -91.9440 262° West 430 495 32,000  Level FlightAware
04:07PM 39.6070 -92.0520 262° West 430 495 32,000  Level FlightAware
04:08PM 39.5940 -92.1710 262° West 429 494 32,000  Level FlightAware
04:09PM 39.5820 -92.2830 262° West 428 493 32,000  Level FlightAware
04:09PM 39.5760 -92.3430 263° West 428 493 32,000  Level FlightAware
04:10PM 39.5620 -92.4640 262° West 426 490 32,000  Level FlightAware
04:11PM 39.5500 -92.5690 262° West 424 488 32,000  Level FlightAware
04:11PM 39.5410 -92.6480 262° West 424 488 32,000  Level FlightAware
04:12PM 39.5290 -92.7620 262° West 420 483 32,000  Level FlightAware
04:13PM 39.5160 -92.8650 261° West 420 483 32,000  Level FlightAware
04:13PM 39.5040 -92.9770 262° West 417 480 32,000  Level FlightAware
04:14PM 39.4890 -93.1020 261° West 418 481 32,000  Level FlightAware
04:15PM 39.4780 -93.1960 261° West 418 481 32,000  Level FlightAware
04:16PM 39.4660 -93.3010 262° West 418 481 32,000  Level FlightAware
04:16PM 39.4530 -93.4100 261° West 419 482 32,000  Level FlightAware
04:17PM 39.4400 -93.5110 261° West 420 483 32,000  Level FlightAware
04:18PM 39.4270 -93.6230 261° West 419 482 32,000  Level FlightAware
04:18PM 39.4150 -93.7210 261° West 417 480 32,000  Level FlightAware
04:19PM 39.4010 -93.8310 261° West 413 475 32,000 60 Level FlightAware
04:20PM 39.3890 -93.9270 261° West 417 480 32,100 660 Climbing FlightAware
04:21PM 39.3770 -94.0250 261° West 417 480 32,900 1,260 Climbing FlightAware
04:21PM 39.3630 -94.1380 261° West 411 473 33,900 1,080 Climbing FlightAware
04:22PM 39.3510 -94.2340 261° West 410 472 34,500 900 Climbing FlightAware
04:23PM 39.3390 -94.3270 261° West 409 471 35,100 840 Climbing FlightAware
04:23PM 39.3240 -94.4380 260° West 410 472 35,700 600 Climbing FlightAware
04:24PM 39.3120 -94.5350 261° West 412 474 36,000 180 Climbing FlightAware
04:25PM 39.2980 -94.6420 260° West 413 475 36,000  Level FlightAware
04:25PM 39.2850 -94.7390 260° West 413 475 36,000  Level FlightAware
04:26PM 39.2740 -94.8370 262° West 415 478 36,000  Level FlightAware
04:27PM 39.2620 -94.9440 262° West 416 479 36,000  Level FlightAware
04:28PM 39.2500 -95.0490 262° West 416 479 36,000  Level FlightAware
04:28PM 39.2400 -95.1560 263° West 419 482 36,000  Level FlightAware
04:29PM 39.2370 -95.2540 268° West 420 483 36,000  Level FlightAware
04:30PM 39.2370 -95.2620 270° West 420 483 36,000  Level FlightAware
04:30PM 39.2330 -95.3780 267° West 421 484 36,000  Level FlightAware
04:31PM 39.2310 -95.4590 268° West 421 484 36,000  Level FlightAware
04:32PM 39.2270 -95.5810 268° West 421 484 36,000  Level FlightAware
04:32PM 39.2240 -95.6660 267° West 421 484 36,000  Level FlightAware
04:33PM 39.2210 -95.7450 267° West 421 484 36,000  Level FlightAware
04:34PM 39.2160 -95.8760 267° West 421 484 36,000  Level FlightAware
04:35PM 39.2140 -95.9350 268° West 421 484 36,000  Level FlightAware
04:35PM 39.2110 -96.0130 267° West 420 483 36,000  Level FlightAware
04:36PM 39.2130 -96.3020 271° West 427 491 36,000  Level FlightAware
04:37PM 39.2350 -96.4210 283° West 426 490 36,000  Level FlightAware
04:37PM 39.2540 -96.5190 284° West 425 489 36,000  Level FlightAware
04:38PM 39.2610 -96.6030 276° West 421 484 36,000  Level FlightAware
04:39PM 39.2560 -96.7280 267° West 420 483 36,000  Level FlightAware
04:39PM 39.2510 -96.8270 266° West 420 483 36,000  Level FlightAware
04:40PM 39.2450 -96.9420 266° West 419 482 36,000  Level FlightAware
04:41PM 39.2390 -97.0350 265° West 419 482 36,000  Level FlightAware
04:42PM 39.2380 -97.1700 269° West 422 486 36,000  Level FlightAware
04:42PM 39.2420 -97.2530 274° West 422 486 36,000  Level FlightAware
04:43PM 39.2510 -97.3920 275° West 422 486 36,000  Level FlightAware
04:44PM 39.2570 -97.4930 274° West 424 488 36,000  Level FlightAware
04:45PM 39.2640 -97.6040 275° West 424 488 36,000  Level FlightAware
04:45PM 39.2710 -97.7030 275° West 423 487 36,000  Level FlightAware
04:46PM 39.2780 -97.8190 274° West 423 487 36,000  Level FlightAware
04:47PM 39.2850 -97.9110 276° West 423 487 36,000  Level FlightAware
04:47PM 39.2920 -98.0000 276° West 424 488 36,000  Level FlightAware
04:48PM 39.3010 -98.1170 276° West 424 488 36,000  Level FlightAware
04:49PM 39.3100 -98.2320 276° West 422 486 36,000  Level FlightAware
04:49PM 39.3160 -98.3150 275° West 422 486 36,000  Level FlightAware
04:50PM 39.3260 -98.4390 276° West 422 486 36,000  Level FlightAware
04:51PM 39.3320 -98.5220 275° West 422 486 36,000  Level FlightAware
04:52PM 39.3410 -98.6470 275° West 425 489 36,000  Level FlightAware
04:52PM 39.3550 -98.7600 279° West 427 491 36,000  Level FlightAware
04:53PM 39.3650 -98.8500 278° West 427 491 36,000  Level FlightAware
04:54PM 39.3750 -98.9360 279° West 427 491 36,000  Level FlightAware
04:54PM 39.3840 -99.0220 278° West 427 491 36,000  Level FlightAware
04:55PM 39.3960 -99.1290 278° West 427 491 36,000  Level FlightAware
04:56PM 39.4050 -99.2150 278° West 427 491 36,000  Level FlightAware
04:56PM 39.4140 -99.3020 278° West 427 491 36,000  Level FlightAware
04:57PM 39.4240 -99.3880 279° West 427 491 36,000  Level FlightAware
04:58PM 39.4330 -99.4740 278° West 427 491 36,000  Level FlightAware
04:59PM 39.4450 -99.5810 278° West 427 491 36,000  Level FlightAware
04:59PM 39.4540 -99.6680 278° West 427 491 36,000  Level FlightAware
05:00PM 39.4630 -99.7540 278° West 427 491 36,000  Level FlightAware
05:01PM 39.4730 -99.8400 279° West 427 491 36,000  Level FlightAware
05:01PM 39.4820 -99.9260 278° West 427 491 36,000  Level FlightAware
05:02PM 39.4940 -100.0340 278° West 427 491 36,000  Level FlightAware
05:02PM 39.7211 -100.2542 278° West 435 501 36,000  Level Denver Center
05:08PM 39.8667 -101.0950 278° West 405 466 36,000  Level FlightAware ADS-B
05:08PM 39.8488 -101.1270 234° Southwest 398 458 36,000  Level FlightAware ADS-B
05:09PM 39.8096 -101.1790 226° Southwest 400 460 36,000  Level FlightAware ADS-B
05:09PM 39.7897 -101.2020 222° Southwest 401 461 36,000  Level FlightAware ADS-B
05:09PM 39.7836 -101.2080 217° Southwest 399 459 36,000  Level FlightAware ADS-B
05:09PM 39.7587 -101.2290 213° Southwest 396 456 36,000  Level FlightAware ADS-B
05:10PM 39.7253 -101.2520 208° Southwest 395 455 36,000  Level FlightAware ADS-B
05:10PM 39.6755 -101.2840 206° Southwest 393 452 36,000  Level FlightAware ADS-B
05:11PM 39.6256 -101.3140 205° Southwest 392 451 36,000  Level FlightAware ADS-B
05:11PM 39.5757 -101.3450 206° Southwest 393 452 36,000  Level FlightAware ADS-B
05:12PM 39.5306 -101.3740 206° Southwest 393 452 36,000  Level FlightAware ADS-B
05:12PM 39.4813 -101.4050 206° Southwest 394 453 36,000  Level FlightAware ADS-B
05:13PM 39.4317 -101.4360 206° Southwest 396 456 36,000  Level FlightAware ADS-B
05:13PM 39.3818 -101.4670 206° Southwest 397 457 36,000  Level FlightAware ADS-B
05:14PM 39.3299 -101.4990 205° Southwest 398 458 36,000  Level FlightAware ADS-B
05:14PM 39.2792 -101.5300 205° Southwest 399 459 36,000  Level FlightAware ADS-B
05:15PM 39.2292 -101.5620 206° Southwest 402 463 36,000  Level FlightAware ADS-B
05:15PM 39.1783 -101.5950 207° Southwest 406 467 36,000  Level FlightAware ADS-B
05:16PM 39.1273 -101.6280 207° Southwest 407 468 36,000  Level FlightAware ADS-B
05:16PM 39.0760 -101.6600 206° Southwest 409 471 36,000  Level FlightAware ADS-B
05:17PM 39.0246 -101.6930 207° Southwest 411 473 36,000  Level FlightAware ADS-B
05:17PM 38.9727 -101.7260 206° Southwest 412 474 36,000  Level FlightAware ADS-B
05:18PM 38.9167 -101.7620 207° Southwest 413 475 36,000  Level FlightAware ADS-B
05:18PM 38.8640 -101.7960 207° Southwest 413 475 36,000  Level FlightAware ADS-B
05:19PM 38.8118 -101.8280 206° Southwest 414 476 36,000  Level FlightAware ADS-B
05:19PM 38.7591 -101.8620 207° Southwest 415 478 36,000  Level FlightAware ADS-B
05:20PM 38.7076 -101.8940 206° Southwest 412 474 36,000  Level FlightAware ADS-B
05:20PM 38.6560 -101.9280 207° Southwest 412 474 36,000  Level FlightAware ADS-B
05:21PM 38.6042 -101.9620 207° Southwest 411 473 36,000  Level FlightAware ADS-B
05:21PM 38.5512 -101.9960 207° Southwest 407 468 36,000  Level FlightAware ADS-B
05:22PM 38.5288 -102.0100 206° Southwest 405 466 36,000  Level FlightAware ADS-B
05:22PM 38.5183 -102.0180 211° Southwest 405 466 36,000  Level FlightAware ADS-B
05:22PM 38.5063 -102.0300 218° Southwest 408 470 36,000  Level FlightAware ADS-B
05:22PM 38.4978 -102.0410 225° Southwest 412 474 36,000  Level FlightAware ADS-B
05:22PM 38.4889 -102.0540 229° Southwest 415 478 36,000 -480 Level FlightAware ADS-B
05:22PM 38.4815 -102.0680 236° Southwest 417 480 35,900 -1,200 Descending FlightAware ADS-B
05:22PM 38.4783 -102.0750 240° Southwest 418 481 35,800 -1,020 Descending FlightAware ADS-B
05:22PM 38.4715 -102.0940 245° Southwest 418 481 35,700 -1,140 Descending FlightAware ADS-B
05:23PM 38.4671 -102.1130 254° West 420 483 35,500 -1,200 Descending FlightAware ADS-B
05:23PM 38.4648 -102.1310 261° West 422 486 35,400 -720 Descending FlightAware ADS-B
05:23PM 38.4641 -102.1560 268° West 426 490 35,300 -1,020 Descending FlightAware ADS-B
05:23PM 38.4657 -102.1750 276° West 430 495 35,100 -1,200 Descending FlightAware ADS-B
05:23PM 38.4691 -102.1940 283° West 435 501 35,000 -1,020 Descending FlightAware ADS-B
05:23PM 38.4766 -102.2180 292° West 444 511 34,800 -1,080 Descending FlightAware ADS-B
05:23PM 38.4832 -102.2340 298° West 452 520 34,700 -1,020 Descending FlightAware ADS-B
05:24PM 38.5222 -102.2980 308° West 462 532 34,200 -1,020 Descending FlightAware ADS-B
05:24PM 38.5632 -102.3650 308° West 464 534 33,700 -1,020 Descending FlightAware ADS-B
05:25PM 38.6032 -102.4300 308° West 471 542 33,200 -900 Descending FlightAware ADS-B
05:25PM 38.6446 -102.4970 308° West 471 542 32,800 -900 Descending FlightAware ADS-B
05:26PM 38.6848 -102.5620 308° West 469 540 32,300 -1,020 Descending FlightAware ADS-B
05:26PM 38.7252 -102.6280 308° West 462 532 31,800 -1,020 Descending FlightAware ADS-B
05:27PM 38.7646 -102.6930 308° West 455 524 31,300 -1,140 Descending FlightAware ADS-B
05:27PM 38.8030 -102.7560 308° West 436 502 30,700 -600 Descending FlightAware ADS-B
05:28PM 38.8392 -102.8150 308° West 410 472 30,700 -300 Level FlightAware ADS-B
05:28PM 38.8735 -102.8720 308° West 402 463 30,400 -720 Descending FlightAware ADS-B
05:29PM 38.9078 -102.9290 308° West 398 458 30,000 -420 Descending FlightAware ADS-B
05:29PM 38.9418 -102.9850 308° West 396 456 30,000  Level FlightAware ADS-B
05:30PM 38.9750 -103.0400 308° West 391 450 30,000  Level FlightAware ADS-B
05:30PM 38.9821 -103.0540 303° West 386 444 30,000  Level FlightAware ADS-B
05:30PM 38.9865 -103.0640 300° West 380 437 30,000  Level FlightAware ADS-B
05:30PM 38.9902 -103.0780 289° West 373 429 30,000  Level FlightAware ADS-B
05:30PM 38.9920 -103.0900 281° West 370 426 30,000  Level FlightAware ADS-B
05:30PM 38.9926 -103.0960 277° West 367 422 30,000  Level FlightAware ADS-B
05:31PM 38.9931 -103.1110 272° West 363 418 30,000  Level FlightAware ADS-B
05:31PM 38.9921 -103.1260 265° West 358 412 30,000  Level FlightAware ADS-B
05:31PM 38.9896 -103.1420 259° West 354 407 30,000  Level FlightAware ADS-B
05:31PM 38.9849 -103.1590 250° West 350 403 30,000  Level FlightAware ADS-B
05:31PM 38.9783 -103.1750 242° Southwest 345 397 30,000  Level FlightAware ADS-B
05:31PM 38.9727 -103.1860 237° Southwest 344 396 30,000  Level FlightAware ADS-B
05:31PM 38.9672 -103.1940 229° Southwest 341 392 30,000 -960 Level FlightAware ADS-B
05:31PM 38.9594 -103.2040 225° Southwest 338 389 29,800 -1,440 Descending FlightAware ADS-B
05:32PM 38.9512 -103.2130 220° Southwest 335 386 29,700 -1,020 Descending FlightAware ADS-B
05:32PM 38.9445 -103.2180 210° Southwest 333 383 29,600 -1,020 Descending FlightAware ADS-B
05:32PM 38.9364 -103.2240 210° Southwest 332 382 29,500 -900 Descending FlightAware ADS-B
05:32PM 38.9249 -103.2300 202° Southwest 331 381 29,400 -780 Descending FlightAware ADS-B
05:32PM 38.9124 -103.2340 194° South 331 381 29,300 -1,200 Descending FlightAware ADS-B
05:32PM 38.9017 -103.2350 184° South 331 381 29,100 -1,320 Descending FlightAware ADS-B
05:32PM 38.8912 -103.2350 180° South 332 382 29,000 -1,020 Descending FlightAware ADS-B
05:32PM 38.8845 -103.2350 180° South 332 382 28,900 -1,020 Descending FlightAware ADS-B
05:32PM 38.8740 -103.2330 172° South 334 384 28,800 -900 Descending FlightAware ADS-B
05:33PM 38.8636 -103.2290 163° South 336 387 28,700 -1,020 Descending FlightAware ADS-B
05:33PM 38.8559 -103.2250 158° South 338 389 28,600 -900 Descending FlightAware ADS-B
05:33PM 38.8439 -103.2170 153° Southeast 342 394 28,500 -1,020 Descending FlightAware ADS-B
05:33PM 38.8313 -103.2050 143° Southeast 347 399 28,300 -1,440 Descending FlightAware ADS-B
05:33PM 38.8230 -103.1940 134° Southeast 351 404 28,100 -1,500 Descending FlightAware ADS-B
05:33PM 38.8183 -103.1870 131° Southeast 354 407 28,000 -1,200 Descending FlightAware ADS-B
05:33PM 38.8127 -103.1770 126° Southeast 358 412 27,900 -1,200 Descending FlightAware ADS-B
05:34PM 38.7864 -103.1220 122° Southeast 362 417 27,300 -900 Descending FlightAware ADS-B
05:34PM 38.7599 -103.0680 122° Southeast 359 413 27,000 -900 Descending FlightAware ADS-B
05:35PM 38.7310 -103.0080 122° Southeast 355 409 26,400 -1,080 Descending FlightAware ADS-B
05:35PM 38.7205 -102.9860 121° Southeast 353 406 26,200 -1,080 Descending FlightAware ADS-B
05:35PM 38.7171 -102.9780 119° Southeast 355 409 26,100 -1,140 Descending FlightAware ADS-B
05:35PM 38.7132 -102.9660 113° Southeast 360 414 26,000 -960 Descending FlightAware ADS-B
05:35PM 38.7102 -102.9530 106° East 366 421 25,900 -1,200 Descending FlightAware ADS-B
05:35PM 38.7089 -102.9440 100° East 369 425 25,800 -1,380 Descending FlightAware ADS-B
05:35PM 38.7079 -102.9320 96° East 372 428 25,700 -1,020 Descending FlightAware ADS-B
05:36PM 38.7078 -102.9180 91° East 376 433 25,600 -1,200 Descending FlightAware ADS-B
05:36PM 38.7097 -102.8990 83° East 383 441 25,400 -1,320 Descending FlightAware ADS-B
05:36PM 38.7120 -102.8880 75° East 387 445 25,300 -1,140 Descending FlightAware ADS-B
05:36PM 38.7159 -102.8750 69° East 390 449 25,200 -1,200 Descending FlightAware ADS-B
05:36PM 38.7195 -102.8660 63° Northeast 391 450 25,100 -1,380 Descending FlightAware ADS-B
05:36PM 38.7241 -102.8560 59° Northeast 393 452 25,000 -1,140 Descending FlightAware ADS-B
05:36PM 38.7309 -102.8440 54° Northeast 395 455 24,900 -600 Descending FlightAware ADS-B
05:36PM 38.7361 -102.8370 46° Northeast 396 456 24,900 -900 Level FlightAware ADS-B
05:36PM 38.7401 -102.8320 44° Northeast 397 457 24,800 -780 Descending FlightAware ADS-B
05:36PM 38.7460 -102.8260 38° Northeast 398 458 24,800 -600 Level FlightAware ADS-B
05:36PM 38.7551 -102.8180 34° Northeast 398 458 24,700 -1,140 Descending FlightAware ADS-B
05:36PM 38.7630 -102.8130 26° Northeast 397 457 24,600 -1,200 Descending FlightAware ADS-B
05:37PM 38.7728 -102.8080 22° Northeast 396 456 24,500 -1,500 Descending FlightAware ADS-B
05:37PM 38.7836 -102.8040 16° North 394 453 24,300 -1,320 Descending FlightAware ADS-B
05:37PM 38.7959 -102.8010 11° North 392 451 24,200 -1,020 Descending FlightAware ADS-B
05:37PM 38.8052 -102.8010 360° North 390 449 24,100 -1,380 Descending FlightAware ADS-B
05:37PM 38.8134 -102.8010 360° North 388 447 24,000 -1,200 Descending FlightAware ADS-B
05:37PM 38.8241 -102.8030 352° North 383 441 23,900 -1,020 Descending FlightAware ADS-B
05:37PM 38.8333 -102.8060 346° North 378 435 23,800 -1,020 Descending FlightAware ADS-B
05:37PM 38.8439 -102.8110 340° North 372 428 23,700 -1,140 Descending FlightAware ADS-B
05:37PM 38.8504 -102.8150 334° Northwest 368 423 23,600 -1,500 Descending FlightAware ADS-B
05:37PM 38.8556 -102.8190 329° Northwest 365 420 23,500 -780 Descending FlightAware ADS-B
05:37PM 38.8626 -102.8250 326° Northwest 359 413 23,500 -1,140 Level FlightAware ADS-B
05:38PM 38.8694 -102.8320 321° Northwest 355 409 23,300 -1,200 Descending FlightAware ADS-B
05:38PM 38.8797 -102.8460 313° West 346 398 23,200 -900 Descending FlightAware ADS-B
05:38PM 38.8848 -102.8550 306° West 340 391 23,100 -360 Descending FlightAware ADS-B
05:38PM 38.9100 -102.9070 302° West 337 388 23,000 -180 Descending FlightAware ADS-B
05:39PM 38.9210 -102.9300 302° West 334 384 23,000  Level FlightAware ADS-B
05:39PM 38.9238 -102.9380 294° West 329 379 23,000  Level FlightAware ADS-B
05:39PM 38.9264 -102.9490 287° West 322 371 23,000  Level FlightAware ADS-B
05:39PM 38.9274 -102.9560 280° West 318 366 23,000  Level FlightAware ADS-B
05:39PM 38.9277 -102.9660 272° West 314 361 23,000  Level FlightAware ADS-B
05:39PM 38.9271 -102.9740 264° West 310 357 23,000  Level FlightAware ADS-B
05:39PM 38.9252 -102.9840 256° West 306 352 23,000  Level FlightAware ADS-B
05:39PM 38.9230 -102.9910 248° West 305 351 23,000  Level FlightAware ADS-B
05:40PM 38.9040 -103.0410 244° Southwest 306 352 23,000  Level FlightAware ADS-B
05:40PM 38.8845 -103.0900 243° Southwest 302 348 23,000  Level FlightAware ADS-B
05:41PM 38.8651 -103.1390 243° Southwest 313 360 23,000  Level FlightAware ADS-B
05:41PM 38.8505 -103.1750 243° Southwest 312 359 23,000  Level FlightAware ADS-B
05:41PM 38.8353 -103.2090 240° Southwest 311 358 23,000  Level FlightAware ADS-B
05:42PM 38.8136 -103.2570 240° Southwest 309 356 23,000  Level FlightAware ADS-B
05:42PM 38.8059 -103.2740 240° Southwest 308 354 23,000  Level FlightAware ADS-B
05:42PM 38.8032 -103.2820 247° West 308 354 23,000  Level FlightAware ADS-B
05:42PM 38.8012 -103.2900 252° West 310 357 23,000  Level FlightAware ADS-B
05:42PM 38.7998 -103.3020 261° West 315 362 23,000  Level FlightAware ADS-B
05:42PM 38.7997 -103.3090 269° West 318 366 23,000  Level FlightAware ADS-B
05:42PM 38.8002 -103.3160 275° West 322 371 23,000  Level FlightAware ADS-B
05:43PM 38.8023 -103.3280 283° West 328 377 23,000  Level FlightAware ADS-B
05:43PM 38.8047 -103.3370 289° West 333 383 23,000  Level FlightAware ADS-B
05:43PM 38.8081 -103.3460 296° West 335 386 23,000 -540 Level FlightAware ADS-B
05:43PM 38.8137 -103.3570 303° West 338 389 22,900 -1,680 Descending FlightAware ADS-B
05:43PM 38.8257 -103.3730 314° West 350 403 22,500 -1,080 Descending FlightAware ADS-B
05:43PM 38.8646 -103.4100 323° Northwest 347 399 22,200 -720 Descending FlightAware ADS-B
05:44PM 38.9031 -103.4480 322° Northwest 349 402 21,800 -840 Descending FlightAware ADS-B
05:44PM 38.9419 -103.4860 323° Northwest 351 404 21,400 -840 Descending FlightAware ADS-B
05:45PM 38.9814 -103.5250 322° Northwest 356 410 21,000 -720 Descending FlightAware ADS-B
05:45PM 39.0209 -103.5650 322° Northwest 362 417 20,700 -720 Descending FlightAware ADS-B
05:46PM 39.0608 -103.6040 323° Northwest 360 414 20,300 -840 Descending FlightAware ADS-B
05:46PM 39.1001 -103.6430 322° Northwest 358 412 19,900 -840 Descending FlightAware ADS-B
05:47PM 39.1399 -103.6820 323° Northwest 358 412 19,500 -840 Descending FlightAware ADS-B
05:48PM 39.1796 -103.7220 322° Northwest 357 411 19,100 -720 Descending FlightAware ADS-B
05:48PM 39.2195 -103.7620 322° Northwest 356 410 18,800 -720 Descending FlightAware ADS-B
05:49PM 39.2591 -103.8010 323° Northwest 356 410 18,400 -840 Descending FlightAware ADS-B
05:49PM 39.2982 -103.8400 322° Northwest 356 410 18,000 -840 Descending FlightAware ADS-B
05:50PM 39.3378 -103.8800 322° Northwest 354 407 17,600 -780 Descending FlightAware ADS-B
05:50PM 39.3716 -103.9140 322° Northwest 349 402 17,300 -780 Descending FlightAware ADS-B
05:50PM 39.3798 -103.9230 320° Northwest 348 400 17,200 -600 Descending FlightAware ADS-B
05:50PM 39.3849 -103.9300 313° West 346 398 17,200 -600 Level FlightAware ADS-B
05:50PM 39.3891 -103.9380 304° West 342 394 17,100 -600 Descending FlightAware ADS-B
05:50PM 39.3927 -103.9470 297° West 340 391 17,100 -720 Level FlightAware ADS-B
05:50PM 39.3952 -103.9550 292° West 339 390 17,000 -1,380 Descending FlightAware ADS-B
05:50PM 39.3973 -103.9640 287° West 335 386 16,900 -1,200 Descending FlightAware ADS-B
05:51PM 39.3986 -103.9740 280° West 332 382 16,800 -1,080 Descending FlightAware ADS-B
05:51PM 39.4013 -104.0320 273° West 318 366 16,300 -1,020 Descending FlightAware ADS-B
05:52PM 39.4037 -104.0880 273° West 301 346 15,800 -960 Descending FlightAware ADS-B
05:52PM 39.4058 -104.1380 273° West 293 337 15,400 -840 Descending FlightAware ADS-B
05:53PM 39.4079 -104.1920 273° West 298 343 15,000 -780 Descending FlightAware ADS-B
05:53PM 39.4098 -104.2400 273° West 293 337 14,700 -1,080 Descending FlightAware ADS-B
05:54PM 39.4122 -104.2930 273° West 293 337 14,000 -1,560 Descending FlightAware ADS-B
05:54PM 39.4148 -104.3430 274° West 295 339 13,200 -1,680 Descending FlightAware ADS-B
05:54PM 39.4158 -104.3680 273° West 297 342 12,800 -1,800 Descending FlightAware ADS-B
05:55PM 39.4178 -104.4130 273° West 291 335 12,000 -1,800 Descending FlightAware ADS-B
05:55PM 39.4188 -104.4330 274° West 289 333 11,700 -1,440 Descending FlightAware ADS-B
05:55PM 39.4198 -104.4410 279° West 289 333 11,600 -720 Descending FlightAware ADS-B
05:55PM 39.4214 -104.4480 286° West 288 331 11,600 -1,380 Level FlightAware ADS-B
05:55PM 39.4246 -104.4570 295° West 287 330 11,400 -1,500 Descending FlightAware ADS-B
05:55PM 39.4292 -104.4650 307° West 287 330 11,300 -1,200 Descending FlightAware ADS-B
05:55PM 39.4324 -104.4700 310° West 286 329 11,200 -1,560 Descending FlightAware ADS-B
05:56PM 39.4557 -104.5060 310° West 282 325 10,500 -1,140 Descending FlightAware ADS-B
05:56PM 39.4818 -104.5460 310° West 272 313 10,100 -660 Descending FlightAware ADS-B
05:56PM 39.4872 -104.5520 319° Northwest 271 312 10,100  Level FlightAware ADS-B
05:56PM 39.4903 -104.5540 334° Northwest 269 310 10,100  Level FlightAware ADS-B
05:57PM 39.5188 -104.5770 328° Northwest 258 297 10,100  Level FlightAware ADS-B
05:57PM 39.5509 -104.6030 328° Northwest 269 310 10,100 -180 Level FlightAware ADS-B
05:58PM 39.5688 -104.6180 327° Northwest 267 307 10,000 -540 Descending FlightAware ADS-B
05:58PM 39.5862 -104.6320 328° Northwest 267 307 9,800 -600 Descending FlightAware ADS-B
05:58PM 39.6015 -104.6440 329° Northwest 256 295 9,700 -1,020 Descending FlightAware ADS-B
05:58PM 39.6169 -104.6560 329° Northwest 250 288 9,300 -1,440 Descending FlightAware ADS-B
05:59PM 39.6227 -104.6590 338° Northwest 247 284 9,200 -1,380 Descending FlightAware ADS-B
05:59PM 39.6264 -104.6610 337° Northwest 245 282 9,100 -720 Descending FlightAware ADS-B
05:59PM 39.6323 -104.6630 345° North 243 280 9,100 -720 Level FlightAware ADS-B
05:59PM 39.6554 -104.6630 360° North 239 275 8,800 -1,140 Descending FlightAware ADS-B
05:59PM 39.6684 -104.6620 North 233 268 8,500 -1,440 Descending FlightAware ADS-B
05:59PM 39.6824 -104.6620 360° North 224 258 8,200 -960 Descending FlightAware ADS-B
06:00PM 39.6880 -104.6620 360° North 220 253 8,200 -900 Level FlightAware ADS-B
06:00PM 39.7032 -104.6620 360° North 210 242 7,900 -1,200 Descending FlightAware ADS-B
06:00PM 39.7173 -104.6620 360° North 205 236 7,600 -840 Descending FlightAware ADS-B
06:00PM 39.7234 -104.6620 360° North 203 234 7,600 900 Level FlightAware ADS-B
06:00PM 39.7365 -104.6630 357° North 206 237 7,900 1,320 Climbing FlightAware ADS-B
06:00PM 39.7402 -104.6640 348° North 207 238 8,000 1,080 Climbing FlightAware ADS-B
06:01PM 39.7462 -104.6670 339° North 206 237 8,100 420 Climbing FlightAware ADS-B
06:01PM 39.7515 -104.6720 324° Northwest 206 237 8,100  Level FlightAware ADS-B
06:01PM 39.7551 -104.6760 319° Northwest 213 245 8,100 -600 Level FlightAware ADS-B
06:01PM 39.7581 -104.6830 299° West 214 246 8,000 -720 Descending FlightAware ADS-B
06:01PM 39.7597 -104.6870 297° West 222 255 8,000  Level FlightAware ADS-B
06:01PM 39.7622 -104.6990 285° West 230 265 8,000 120 Level FlightAware ADS-B
06:02PM 39.7697 -104.7390 284° West 258 297 8,100 120 Climbing FlightAware ADS-B
06:02PM 39.7748 -104.7640 285° West 262 302 8,100  Level FlightAware ADS-B
06:02PM 39.7797 -104.7880 285° West 261 300 8,100  Level FlightAware ADS-B
06:02PM 39.7823 -104.8280 275° West 259 298 8,100  Level FlightAware ADS-B
06:03PM 39.7766 -104.8700 260° West 263 303 8,100  Level FlightAware ADS-B
06:03PM 39.7710 -104.9140 261° West 249 287 8,100 -540 Level FlightAware
06:04PM 39.7783 -104.9580 282° West 241 277 7,600 -720 Descending FlightAware ADS-B
06:05PM 39.8230 -104.9490 North 193 222 7,100 -420 Descending FlightAware
06:05PM 39.8330 -104.9250 62° Northeast 186 214 7,100  Level FlightAware
06:05PM 39.8385 -104.9130 59° Northeast 217 250 7,100  Level FlightAware ADS-B
06:06PM 39.8403 -104.9060 71° East 191 220 7,100  Level FlightAware ADS-B
06:06PM 39.8417 -104.8870 85° East 193 222 7,100  Level FlightAware ADS-B
06:06PM 39.8416 -104.8610 90° East 193 222 7,100 -180 Level FlightAware ADS-B
06:07PM 39.8415 -104.8400 90° East 193 222 7,000 -600 Descending FlightAware ADS-B
06:07PM 39.8415 -104.8220 90° East 193 222 6,800 -1,020 Descending FlightAware ADS-B
06:07PM 39.8414 -104.8060 90° East 183 211 6,500 -1,020 Descending FlightAware ADS-B
06:07PM 39.8412 -104.7890 91° East 181 208 6,300 -840 Descending FlightAware ADS-B
06:08PM 39.8411 -104.7720 90° East 183 211 6,100 -900 Descending FlightAware ADS-B
06:08PM 39.8414 -104.7580 88° East 187 215 5,900 -900 Descending FlightAware ADS-B
06:08PM 39.8412 -104.7490 92° East 183 211 5,800 -960 Descending FlightAware ADS-B
06:08PM 39.8410 -104.7380 91° East 182 209 5,600 -1,140 Descending FlightAware ADS-B
06:08PM 39.8409 -104.7260 91° East 176 203 5,400 -1,020 Descending FlightAware ADS-B